Time;durP1;ratioP1;P1;durP2;ratioP2;P2;SDS_P1;SDS_P2;PMS_P1;PMS_P2;Temp;Humidity;BMP_temperature;BMP_pressure;BME280_temperature;BME280_humidity;BME280_pressure;Samples;Min_cycle;Max_cycle;Signal;HPM_P1;HPM_P2
2022/01/25 00:10:14;;;;;;;7.37;4.50;;;5.90;99.90;;;;;;5037123;28;20490;-57
2022/01/25 00:15:59;;;;;;;9.73;4.93;;;6.00;99.90;;;;;;5068645;28;20426;-53
2022/01/25 00:26:36;;;;;;;13.43;4.90;;;5.90;99.90;;;;;;5066934;28;20942;-55
2022/01/25 00:29:07;;;;;;;13.93;6.10;;;5.90;99.90;;;;;;5068498;28;20463;-57
2022/01/25 00:31:38;;;;;;;9.47;5.87;;;5.90;99.90;;;;;;5067074;28;20472;-57
2022/01/25 00:34:05;;;;;;;9.23;5.67;;;6.00;99.90;;;;;;5067858;28;20468;-54
2022/01/25 00:36:32;;;;;;;19.37;5.90;;;6.00;99.90;;;;;;5067841;28;20452;-57
2022/01/25 00:39:00;;;;;;;7.67;5.33;;;5.90;99.90;;;;;;5067375;28;20460;-53
2022/01/25 00:41:28;;;;;;;12.33;5.87;;;5.90;99.90;;;;;;5067524;28;20453;-55
2022/01/25 00:43:57;;;;;;;7.20;4.40;;;5.90;99.90;;;;;;5066644;28;20460;-55
2022/01/25 00:46:24;;;;;;;10.67;4.50;;;5.90;99.90;;;;;;5066980;28;20494;-54
2022/01/25 00:48:55;;;;;;;13.93;6.87;;;5.90;99.90;;;;;;5066755;28;20450;-57
2022/01/25 00:51:57;;;;;;;14.77;7.00;;;5.90;99.90;;;;;;5067124;28;20438;-51
2022/01/25 00:54:28;;;;;;;6.93;5.10;;;5.90;99.90;;;;;;5066554;28;20468;-55
2022/01/25 00:56:58;;;;;;;7.57;4.90;;;5.90;99.90;;;;;;5067446;28;20446;-56
2022/01/25 00:59:28;;;;;;;13.40;5.67;;;6.00;99.90;;;;;;5066890;28;20473;-57
2022/01/25 01:01:57;;;;;;;11.87;5.67;;;5.90;99.90;;;;;;5068631;28;20962;-54
2022/01/25 01:04:31;;;;;;;11.77;6.40;;;5.90;99.90;;;;;;5068442;28;20479;-56
2022/01/25 01:07:00;;;;;;;12.20;5.60;;;6.00;99.90;;;;;;5067129;28;20494;-54
2022/01/25 01:09:29;;;;;;;12.90;6.93;;;6.00;99.90;;;;;;5066442;28;20487;-57
2022/01/25 01:12:00;;;;;;;14.00;5.80;;;6.00;99.90;;;;;;5066706;28;20443;-56
2022/01/25 01:14:49;;;;;;;11.10;6.30;;;6.00;99.90;;;;;;5067246;28;20432;-55
2022/01/25 01:17:49;;;;;;;12.80;7.30;;;6.00;99.90;;;;;;5066713;28;20428;-56
2022/01/25 01:31:24;;;;;;;11.57;6.20;;;6.00;99.90;;;;;;5066212;28;20491;-56
2022/01/25 01:34:16;;;;;;;11.70;6.30;;;6.00;99.90;;;;;;5066108;28;20471;-56
2022/01/25 01:37:13;;;;;;;11.63;7.30;;;6.00;99.90;;;;;;5065718;28;20460;-52
2022/01/25 01:40:05;;;;;;;10.77;5.33;;;6.00;99.90;;;;;;5065940;28;20431;-59
2022/01/25 01:45:39;;;;;;;17.83;6.10;;;6.00;99.90;;;;;;5066394;28;20490;-57
2022/01/25 01:48:10;;;;;;;9.97;5.67;;;6.00;99.90;;;;;;5066114;28;20471;-58
2022/01/25 01:50:38;;;;;;;14.40;5.70;;;6.00;99.90;;;;;;5065880;28;20556;-56
2022/01/25 01:53:08;;;;;;;14.87;6.23;;;5.90;99.90;;;;;;5066635;28;20453;-53
2022/01/25 01:55:35;;;;;;;15.20;6.03;;;5.90;99.90;;;;;;5065373;28;20962;-57
2022/01/25 01:58:03;;;;;;;14.60;7.20;;;6.00;99.90;;;;;;5066458;28;20484;-56
2022/01/25 02:00:35;;;;;;;8.67;5.10;;;6.00;99.90;;;;;;5065449;28;20471;-54
2022/01/25 02:03:02;;;;;;;10.90;6.60;;;6.00;99.90;;;;;;5065809;28;20468;-57
2022/01/25 02:05:30;;;;;;;9.93;5.60;;;6.00;99.90;;;;;;5065861;28;20509;-54
2022/01/25 02:07:57;;;;;;;12.47;5.40;;;6.00;99.90;;;;;;5065360;28;20455;-57
2022/01/25 02:10:25;;;;;;;14.33;7.17;;;6.00;99.90;;;;;;5065379;28;20483;-57
2022/01/25 02:12:52;;;;;;;13.37;7.63;;;6.00;99.90;;;;;;5065520;28;20439;-54
2022/01/25 02:15:20;;;;;;;14.20;4.77;;;6.00;99.90;;;;;;5065195;28;20447;-54
2022/01/25 02:23:26;;;;;;;12.60;6.20;;;5.90;99.90;;;;;;5067667;28;20428;-57
2022/01/25 02:25:55;;;;;;;14.47;6.10;;;5.90;99.90;;;;;;5066972;28;20452;-56
2022/01/25 02:28:22;;;;;;;15.63;7.13;;;5.80;99.90;;;;;;5066747;28;20447;-58
2022/01/25 02:30:50;;;;;;;11.60;5.37;;;5.80;99.90;;;;;;5066769;28;20495;-58
2022/01/25 02:33:17;;;;;;;11.90;5.43;;;5.80;99.90;;;;;;5066601;28;20497;-58
2022/01/25 02:35:45;;;;;;;19.17;8.10;;;5.80;99.90;;;;;;5066965;28;20439;-56
2022/01/25 02:38:14;;;;;;;19.63;9.57;;;5.80;99.90;;;;;;5066219;28;20490;-57
2022/01/25 02:40:41;;;;;;;14.70;7.37;;;5.70;99.90;;;;;;5066836;28;20455;-56
2022/01/25 02:43:08;;;;;;;21.40;7.30;;;5.70;99.90;;;;;;5066629;28;20454;-55
2022/01/25 02:45:36;;;;;;;20.37;8.97;;;5.60;99.90;;;;;;5067121;28;20490;-56
2022/01/25 02:50:51;;;;;;;24.80;8.10;;;5.50;99.90;;;;;;5067174;28;20485;-56
2022/01/25 02:53:18;;;;;;;22.90;9.57;;;5.50;99.90;;;;;;5066873;28;20498;-56
2022/01/25 02:55:45;;;;;;;13.70;8.13;;;5.40;99.90;;;;;;5066801;28;20440;-54
2022/01/25 02:58:11;;;;;;;29.07;10.07;;;5.40;99.90;;;;;;5065875;28;20454;-55
2022/01/25 03:00:38;;;;;;;19.27;9.47;;;5.40;99.90;;;;;;5066754;28;20436;-55
2022/01/25 03:03:07;;;;;;;19.20;8.27;;;5.40;99.90;;;;;;5066270;28;20448;-57
2022/01/25 03:05:34;;;;;;;17.93;8.27;;;5.40;99.90;;;;;;5066567;28;20459;-55
2022/01/25 03:08:02;;;;;;;19.90;9.90;;;5.40;99.90;;;;;;5067091;28;20451;-56
2022/01/25 03:10:37;;;;;;;20.13;11.67;;;5.40;99.90;;;;;;5067628;28;20479;-57
2022/01/25 03:13:09;;;;;;;19.27;7.67;;;5.30;99.90;;;;;;5070145;28;20482;-51
2022/01/25 03:15:55;;;;;;;15.00;7.80;;;5.30;99.90;;;;;;5071438;28;20491;-54
2022/01/25 03:18:38;;;;;;;22.80;8.70;;;5.20;99.90;;;;;;5071332;28;20470;-56
2022/01/25 03:21:19;;;;;;;17.33;6.63;;;5.10;99.90;;;;;;5070959;28;20478;-57
2022/01/25 03:23:48;;;;;;;20.37;9.67;;;5.10;99.90;;;;;;5071119;28;20455;-55
2022/01/25 03:26:15;;;;;;;17.50;8.30;;;5.10;99.90;;;;;;5071221;28;20444;-55
2022/01/25 03:28:43;;;;;;;17.33;9.13;;;5.10;99.90;;;;;;5070707;28;20455;-57
2022/01/25 03:31:09;;;;;;;23.33;9.07;;;5.10;99.90;;;;;;5071480;28;20475;-56
2022/01/25 03:33:37;;;;;;;23.60;7.57;;;5.00;99.90;;;;;;5071036;28;20459;-53
2022/01/25 03:36:05;;;;;;;15.97;6.50;;;5.00;99.90;;;;;;5070769;28;20440;-56
2022/01/25 03:38:31;;;;;;;21.23;11.53;;;5.10;99.90;;;;;;5071096;28;20448;-55
2022/01/25 03:40:59;;;;;;;17.47;7.83;;;5.10;99.90;;;;;;5071244;28;20456;-54
2022/01/25 03:43:26;;;;;;;15.07;7.60;;;5.10;99.90;;;;;;5071646;28;20473;-57
2022/01/25 03:46:07;;;;;;;26.77;8.53;;;5.10;99.90;;;;;;5071901;28;20452;-57
2022/01/25 03:51:18;;;;;;;19.00;7.53;;;5.00;99.90;;;;;;5071418;28;20751;-54
2022/01/25 03:53:45;;;;;;;29.30;10.17;;;5.00;99.90;;;;;;5071120;28;20444;-53
2022/01/25 03:56:13;;;;;;;17.93;6.00;;;5.20;99.90;;;;;;5070699;28;20467;-56
2022/01/25 03:58:40;;;;;;;20.70;7.10;;;5.00;99.90;;;;;;5070559;28;20452;-56
2022/01/25 04:01:06;;;;;;;17.50;8.20;;;5.00;99.90;;;;;;5071435;28;20772;-57
2022/01/25 04:03:38;;;;;;;24.50;8.53;;;4.90;99.90;;;;;;5070387;28;20467;-57
2022/01/25 04:06:09;;;;;;;21.20;7.23;;;4.90;99.90;;;;;;5070509;28;20439;-57
2022/01/25 04:08:36;;;;;;;18.43;8.07;;;5.00;99.90;;;;;;5070828;28;20428;-57
2022/01/25 04:11:04;;;;;;;18.73;9.23;;;5.00;99.90;;;;;;5070944;28;20495;-57
2022/01/25 04:13:32;;;;;;;14.83;6.50;;;5.00;99.90;;;;;;5070437;28;20489;-57
2022/01/25 04:16:05;;;;;;;13.53;5.57;;;5.10;99.90;;;;;;5069787;28;20478;-55
2022/01/25 04:18:36;;;;;;;12.33;6.43;;;5.10;99.90;;;;;;5070434;28;20769;-53
2022/01/25 04:21:10;;;;;;;14.00;6.90;;;5.10;99.90;;;;;;5070588;28;20454;-57
2022/01/25 04:26:21;;;;;;;17.90;6.80;;;5.10;99.90;;;;;;5071485;28;20435;-53
2022/01/25 04:28:49;;;;;;;17.53;8.50;;;5.00;99.90;;;;;;5070240;28;20888;-55
2022/01/25 04:31:18;;;;;;;15.40;5.27;;;5.10;99.90;;;;;;5070316;28;20482;-56
2022/01/25 04:34:06;;;;;;;14.80;6.10;;;5.00;99.90;;;;;;5069976;28;20452;-57
2022/01/25 04:36:55;;;;;;;17.83;6.47;;;5.10;99.90;;;;;;5070075;28;20460;-57
2022/01/25 04:50:39;;;;;;;10.80;5.27;;;5.20;99.90;;;;;;5070941;28;20506;-57
2022/01/25 04:53:12;;;;;;;19.03;5.30;;;5.10;99.90;;;;;;5070757;28;20519;-53
2022/01/25 04:55:45;;;;;;;22.20;7.23;;;5.10;99.90;;;;;;5070777;28;20472;-56
2022/01/25 04:58:18;;;;;;;15.70;6.37;;;5.10;99.90;;;;;;5070671;28;20432;-57
2022/01/25 05:00:48;;;;;;;20.77;7.77;;;5.10;99.90;;;;;;5070352;28;21202;-57
2022/01/25 05:03:22;;;;;;;13.90;6.50;;;5.20;99.90;;;;;;5071322;28;20472;-56
2022/01/25 05:05:56;;;;;;;14.00;7.47;;;5.20;99.90;;;;;;5074493;28;20444;-56
2022/01/25 05:08:32;;;;;;;20.67;6.60;;;5.20;99.90;;;;;;5076662;28;20487;-57
2022/01/25 05:11:06;;;;;;;11.37;6.30;;;5.20;99.90;;;;;;5076501;28;20539;-53
2022/01/25 05:13:43;;;;;;;20.10;6.53;;;5.30;99.90;;;;;;5076553;28;20539;-53
2022/01/25 05:16:27;;;;;;;18.77;7.67;;;5.30;99.90;;;;;;5076216;28;20443;-58
2022/01/25 05:19:02;;;;;;;13.83;6.10;;;5.30;99.90;;;;;;5075945;28;20490;-55
2022/01/25 05:24:13;;;;;;;12.40;7.43;;;5.20;99.90;;;;;;5076168;28;20462;-57
2022/01/25 05:26:40;;;;;;;13.63;5.20;;;5.20;99.90;;;;;;5075625;28;20431;-55
2022/01/25 05:29:07;;;;;;;10.33;5.10;;;5.20;99.90;;;;;;5076541;28;20428;-51
2022/01/25 05:31:35;;;;;;;18.10;5.33;;;5.20;99.90;;;;;;5075963;28;20506;-54
2022/01/25 05:34:02;;;;;;;16.17;6.17;;;5.10;99.90;;;;;;5075082;28;20428;-55
2022/01/25 05:36:31;;;;;;;18.77;6.53;;;5.10;99.90;;;;;;5075296;28;20461;-54
2022/01/25 05:39:01;;;;;;;16.17;6.50;;;5.10;99.90;;;;;;5075967;28;20883;-57
2022/01/25 05:41:32;;;;;;;16.87;6.10;;;5.10;99.90;;;;;;5075757;28;20478;-54
2022/01/25 05:44:25;;;;;;;12.20;6.90;;;5.10;99.90;;;;;;5074691;28;20480;-54
2022/01/25 05:47:05;;;;;;;20.03;5.93;;;5.20;99.90;;;;;;5075310;28;20436;-55
2022/01/25 05:49:34;;;;;;;14.90;6.53;;;5.20;99.90;;;;;;5075195;28;20468;-57
2022/01/25 05:52:01;;;;;;;10.23;5.63;;;5.30;99.90;;;;;;5075144;28;20514;-56
2022/01/25 05:54:28;;;;;;;15.47;7.63;;;5.40;99.90;;;;;;5074850;28;20709;-54
2022/01/25 05:56:56;;;;;;;15.77;6.10;;;5.40;99.90;;;;;;5074856;28;20448;-53
2022/01/25 05:59:26;;;;;;;14.37;7.17;;;5.50;99.90;;;;;;5074859;28;20470;-57
2022/01/25 06:01:54;;;;;;;16.87;7.60;;;5.50;99.90;;;;;;5075483;28;20570;-55
2022/01/25 06:04:23;;;;;;;11.30;6.80;;;5.40;99.90;;;;;;5075321;28;20441;-57
2022/01/25 06:06:50;;;;;;;21.87;7.07;;;5.40;99.90;;;;;;5075512;28;20837;-52
2022/01/25 06:09:17;;;;;;;12.33;5.67;;;5.30;99.90;;;;;;5075195;28;20510;-55
2022/01/25 06:11:44;;;;;;;12.10;6.17;;;5.30;99.90;;;;;;5075180;28;20827;-53
2022/01/25 06:14:11;;;;;;;14.37;7.50;;;5.30;99.90;;;;;;5074945;28;20456;-57
2022/01/25 06:16:37;;;;;;;15.00;6.17;;;5.30;99.90;;;;;;5074770;28;20436;-56
2022/01/25 06:19:09;;;;;;;19.60;7.70;;;5.30;99.90;;;;;;5074612;28;20436;-57
2022/01/25 06:21:39;;;;;;;15.90;6.97;;;5.30;99.90;;;;;;5074704;28;20420;-56
2022/01/25 06:24:06;;;;;;;15.80;8.40;;;5.40;99.90;;;;;;5074479;28;20456;-55
2022/01/25 06:26:33;;;;;;;17.60;8.10;;;5.40;99.90;;;;;;5074559;28;20499;-57
2022/01/25 06:29:00;;;;;;;14.60;6.53;;;5.40;99.90;;;;;;5074691;28;20471;-55
2022/01/25 06:31:30;;;;;;;20.47;8.33;;;5.40;99.90;;;;;;5074677;28;20483;-49
2022/01/25 06:33:57;;;;;;;24.47;7.30;;;5.40;99.90;;;;;;5074558;28;20432;-56
2022/01/25 06:36:25;;;;;;;23.57;7.97;;;5.40;99.90;;;;;;5074763;28;20454;-56
2022/01/25 06:38:51;;;;;;;12.40;6.47;;;5.40;99.90;;;;;;5074481;28;20455;-58
2022/01/25 06:41:18;;;;;;;16.20;7.77;;;5.40;99.90;;;;;;5074651;28;20478;-56
2022/01/25 06:43:46;;;;;;;24.17;8.20;;;5.40;99.90;;;;;;5074425;28;20498;-57
2022/01/25 06:46:12;;;;;;;15.17;7.30;;;5.40;99.90;;;;;;5075996;28;20432;-56
2022/01/25 06:48:42;;;;;;;18.27;6.23;;;5.40;99.90;;;;;;5078829;28;20444;-57
2022/01/25 06:51:09;;;;;;;11.50;6.00;;;5.30;99.90;;;;;;5078372;28;20479;-55
2022/01/25 06:53:37;;;;;;;19.27;8.60;;;5.30;99.90;;;;;;5078868;28;20507;-54
2022/01/25 06:56:07;;;;;;;12.03;6.33;;;5.20;99.90;;;;;;5078970;28;20436;-51
2022/01/25 06:58:34;;;;;;;14.73;6.40;;;5.20;99.90;;;;;;5078539;28;20424;-56
2022/01/25 07:01:01;;;;;;;14.20;6.20;;;5.20;99.90;;;;;;5078593;28;20467;-53
2022/01/25 07:03:28;;;;;;;20.03;8.83;;;5.20;99.90;;;;;;5078463;28;20511;-54
2022/01/25 07:05:54;;;;;;;20.70;8.07;;;5.20;99.90;;;;;;5078780;28;20454;-53
2022/01/25 07:08:21;;;;;;;14.47;6.70;;;5.10;99.90;;;;;;5078629;28;20451;-51
2022/01/25 07:10:49;;;;;;;17.37;5.93;;;5.00;99.90;;;;;;5078422;28;20438;-56
2022/01/25 07:13:16;;;;;;;18.23;6.23;;;5.10;99.90;;;;;;5077269;28;20474;-55
2022/01/25 07:15:42;;;;;;;17.73;6.40;;;5.00;99.90;;;;;;5073976;28;20745;-58
2022/01/25 07:18:09;;;;;;;16.60;6.93;;;5.00;99.90;;;;;;5074690;28;20483;-57
2022/01/25 07:20:36;;;;;;;15.90;7.43;;;5.00;99.90;;;;;;5074795;28;20831;-57
2022/01/25 07:23:02;;;;;;;12.30;6.57;;;4.90;99.90;;;;;;5074240;28;20431;-55
2022/01/25 07:25:29;;;;;;;11.80;5.30;;;4.90;99.90;;;;;;5073791;28;20474;-55
2022/01/25 07:27:57;;;;;;;23.40;8.77;;;4.90;99.90;;;;;;5073504;28;20467;-56
2022/01/25 07:30:24;;;;;;;18.67;9.03;;;4.90;99.90;;;;;;5063841;28;20475;-55
2022/01/25 07:32:51;;;;;;;19.93;9.10;;;5.30;99.90;;;;;;5052167;28;20485;-53
2022/01/25 07:35:17;;;;;;;22.80;8.70;;;5.40;99.90;;;;;;5053063;28;20437;-58
2022/01/25 07:37:44;;;;;;;17.60;7.83;;;5.30;99.90;;;;;;5051815;28;20440;-58
2022/01/25 07:40:13;;;;;;;24.07;8.90;;;5.20;99.90;;;;;;5069928;28;20448;-58
2022/01/25 07:42:40;;;;;;;20.63;8.20;;;5.20;99.90;;;;;;5072708;28;20944;-53
2022/01/25 07:45:11;;;;;;;13.00;7.50;;;5.10;99.90;;;;;;5060232;28;20468;-57
2022/01/25 07:47:38;;;;;;;16.07;8.73;;;5.20;99.90;;;;;;5052450;28;20434;-54
2022/01/25 07:50:06;;;;;;;21.00;9.03;;;5.10;99.90;;;;;;5052696;28;20526;-54
2022/01/25 07:52:33;;;;;;;22.50;6.27;;;5.10;99.90;;;;;;5063453;28;20463;-56
2022/01/25 07:55:02;;;;;;;10.80;5.80;;;5.00;99.90;;;;;;5093051;28;20430;-57
2022/01/25 07:57:29;;;;;;;17.07;8.33;;;5.00;99.90;;;;;;5065513;28;20510;-56
2022/01/25 07:59:57;;;;;;;18.90;8.83;;;5.00;99.90;;;;;;5071577;28;20440;-56
2022/01/25 08:02:27;;;;;;;16.03;7.40;;;5.50;99.90;;;;;;5071114;28;20499;-54
2022/01/25 08:04:54;;;;;;;22.93;8.30;;;6.30;99.90;;;;;;5070518;28;20440;-55
2022/01/25 08:07:21;;;;;;;23.07;10.83;;;6.20;99.90;;;;;;5072017;28;20477;-58
2022/01/25 08:09:48;;;;;;;19.57;8.27;;;6.00;99.90;;;;;;5071817;28;20462;-56
2022/01/25 08:12:15;;;;;;;14.73;6.97;;;5.70;99.90;;;;;;5072225;28;20479;-57
2022/01/25 08:14:43;;;;;;;18.47;9.43;;;5.40;99.90;;;;;;5071513;28;20460;-52
2022/01/25 08:17:11;;;;;;;17.60;7.20;;;5.30;99.90;;;;;;5071886;28;20466;-58
2022/01/25 08:19:39;;;;;;;26.03;9.00;;;5.30;99.90;;;;;;5070737;28;20610;-56
2022/01/25 08:22:06;;;;;;;20.73;7.60;;;5.20;99.90;;;;;;5071118;28;20496;-57
2022/01/25 08:24:32;;;;;;;16.77;9.50;;;5.10;99.90;;;;;;5071730;28;20470;-51
2022/01/25 08:26:59;;;;;;;19.33;6.93;;;5.10;99.90;;;;;;5071827;28;20448;-51
2022/01/25 08:29:26;;;;;;;18.77;7.57;;;5.10;99.90;;;;;;5070719;28;20439;-55
2022/01/25 08:31:52;;;;;;;23.70;7.77;;;5.00;99.90;;;;;;5071170;28;20479;-54
2022/01/25 08:34:19;;;;;;;22.53;7.93;;;5.00;99.90;;;;;;5070996;28;20515;-49
2022/01/25 08:36:47;;;;;;;15.60;7.97;;;5.00;99.90;;;;;;5070621;28;20456;-53
2022/01/25 08:39:14;;;;;;;23.23;9.40;;;5.10;99.90;;;;;;5069526;28;20444;-53
2022/01/25 08:41:41;;;;;;;14.47;4.80;;;5.10;99.90;;;;;;5069865;28;20471;-57
2022/01/25 08:44:08;;;;;;;20.73;7.53;;;5.20;99.90;;;;;;5070615;28;20447;-53
2022/01/25 08:46:38;;;;;;;18.23;8.80;;;5.20;99.90;;;;;;5070794;28;20456;-52
2022/01/25 08:49:05;;;;;;;24.23;7.97;;;5.20;99.90;;;;;;5070840;28;20467;-55
2022/01/25 08:51:31;;;;;;;23.70;8.37;;;5.30;99.90;;;;;;5060078;28;20490;-54
2022/01/25 08:54:00;;;;;;;18.07;9.30;;;5.20;99.90;;;;;;5059769;28;20451;-50
2022/01/25 08:56:28;;;;;;;17.37;6.33;;;5.30;99.90;;;;;;5078974;28;20432;-44
2022/01/25 08:58:57;;;;;;;22.30;8.47;;;5.20;99.90;;;;;;5079236;28;20413;-47
2022/01/25 09:01:29;;;;;;;20.37;7.23;;;5.20;99.90;;;;;;5078775;28;20490;-47
2022/01/25 09:03:57;;;;;;;16.03;6.47;;;5.20;99.90;;;;;;5078954;28;20408;-50
2022/01/25 09:06:26;;;;;;;19.93;8.63;;;5.10;99.90;;;;;;5078759;28;20412;-47
2022/01/25 09:08:53;;;;;;;16.60;6.37;;;5.10;99.90;;;;;;5078126;28;20447;-43
2022/01/25 09:11:21;;;;;;;19.63;7.00;;;5.10;99.90;;;;;;5078551;28;20412;-44
2022/01/25 09:13:48;;;;;;;10.73;6.23;;;5.10;99.90;;;;;;5078643;28;20416;-48
2022/01/25 09:16:15;;;;;;;18.40;8.63;;;5.10;99.90;;;;;;5078559;28;20419;-48
2022/01/25 09:18:43;;;;;;;16.00;8.10;;;5.20;99.90;;;;;;5078690;28;20518;-44
2022/01/25 09:21:13;;;;;;;15.30;7.63;;;5.10;99.90;;;;;;5078451;28;20439;-50
2022/01/25 09:23:42;;;;;;;18.80;8.47;;;5.20;99.90;;;;;;5078312;28;20459;-48
2022/01/25 09:26:10;;;;;;;18.60;9.97;;;5.10;99.90;;;;;;5078569;28;20405;-44
2022/01/25 09:28:38;;;;;;;19.37;6.77;;;5.20;99.90;;;;;;5078242;28;20422;-49
2022/01/25 09:31:08;;;;;;;15.43;7.10;;;5.30;99.90;;;;;;5078269;28;20415;-47
2022/01/25 09:33:37;;;;;;;16.63;7.10;;;5.30;99.90;;;;;;5078075;28;20487;-45
2022/01/25 09:36:05;;;;;;;21.00;9.30;;;5.30;99.90;;;;;;5078356;28;20424;-44
2022/01/25 09:38:34;;;;;;;21.53;8.00;;;5.20;99.90;;;;;;5077991;28;20416;-47
2022/01/25 09:41:02;;;;;;;10.63;5.10;;;5.20;99.90;;;;;;5078242;28;20498;-44
2022/01/25 09:43:33;;;;;;;14.80;5.50;;;5.20;99.90;;;;;;5077919;28;20430;-45
2022/01/25 09:46:01;;;;;;;20.50;7.17;;;5.10;99.90;;;;;;5078051;28;20459;-45
2022/01/25 09:48:30;;;;;;;18.40;8.07;;;5.10;99.90;;;;;;5077934;28;20451;-49
2022/01/25 09:50:59;;;;;;;12.80;7.63;;;5.10;99.90;;;;;;5077908;28;20499;-47
2022/01/25 09:53:26;;;;;;;15.93;8.37;;;5.10;99.90;;;;;;5077741;28;20510;-52
2022/01/25 09:55:54;;;;;;;18.40;6.20;;;5.20;99.90;;;;;;5077883;28;20427;-48
2022/01/25 09:58:21;;;;;;;17.73;8.90;;;5.20;99.90;;;;;;5077757;28;20433;-44
2022/01/25 10:00:49;;;;;;;15.70;7.03;;;5.30;99.90;;;;;;5077699;28;20444;-43
2022/01/25 10:03:25;;;;;;;14.30;6.30;;;5.20;99.90;;;;;;5077803;28;20420;-50
2022/01/25 10:05:56;;;;;;;18.07;8.60;;;5.10;99.90;;;;;;5077416;28;20506;-51
2022/01/25 10:08:30;;;;;;;20.77;7.00;;;5.10;99.90;;;;;;5077636;28;20420;-42
2022/01/25 10:10:59;;;;;;;13.77;7.97;;;5.10;99.90;;;;;;5077570;28;20446;-49
2022/01/25 10:13:31;;;;;;;22.93;8.37;;;5.10;99.90;;;;;;5077253;28;20530;-48
2022/01/25 10:16:04;;;;;;;13.00;5.63;;;5.20;99.90;;;;;;5077615;28;20419;-46
2022/01/25 10:18:41;;;;;;;13.27;6.47;;;5.20;99.90;;;;;;5077475;28;20479;-49
2022/01/25 10:21:16;;;;;;;11.90;7.03;;;5.20;99.90;;;;;;5076678;28;20489;-44
2022/01/25 10:23:59;;;;;;;12.80;6.20;;;5.20;99.90;;;;;;5077628;28;20442;-46
2022/01/25 10:26:29;;;;;;;21.50;7.40;;;5.20;99.90;;;;;;5077203;28;20499;-44
2022/01/25 10:28:58;;;;;;;13.70;6.67;;;5.20;99.90;;;;;;5077491;28;20411;-45
2022/01/25 10:31:36;;;;;;;16.17;6.40;;;5.30;99.90;;;;;;5077354;28;20408;-44
2022/01/25 10:34:09;;;;;;;14.93;7.67;;;5.30;99.90;;;;;;5077975;28;20439;-50
2022/01/25 10:36:44;;;;;;;12.37;5.67;;;5.40;99.90;;;;;;5078001;28;20408;-49
2022/01/25 10:39:12;;;;;;;14.50;5.43;;;5.40;99.90;;;;;;5057732;28;20446;-46
2022/01/25 10:41:42;;;;;;;15.10;5.17;;;5.30;99.90;;;;;;5057662;28;20451;-50
2022/01/25 10:44:09;;;;;;;10.23;4.87;;;5.40;99.90;;;;;;5058392;28;20440;-46
2022/01/25 10:46:38;;;;;;;14.37;6.33;;;5.40;99.90;;;;;;5058169;28;20451;-46
2022/01/25 10:49:09;;;;;;;10.97;4.53;;;5.40;99.90;;;;;;5057958;28;20417;-44
2022/01/25 10:51:39;;;;;;;10.37;6.73;;;5.40;99.90;;;;;;5058205;28;20433;-47
2022/01/25 10:54:10;;;;;;;12.00;5.37;;;5.40;99.90;;;;;;5057838;28;20460;-49
2022/01/25 10:56:42;;;;;;;16.70;7.60;;;5.40;99.90;;;;;;5058155;28;20409;-53
2022/01/25 10:59:12;;;;;;;10.10;4.40;;;5.40;99.90;;;;;;5057935;28;20461;-48
2022/01/25 11:01:47;;;;;;;12.87;5.63;;;5.40;99.90;;;;;;5058052;28;20441;-46
2022/01/25 11:04:18;;;;;;;14.73;5.23;;;5.40;99.90;;;;;;5058101;28;20440;-45
2022/01/25 11:06:45;;;;;;;7.93;3.87;;;5.50;99.90;;;;;;5058088;28;20441;-45
2022/01/25 11:09:16;;;;;;;13.50;6.40;;;5.50;99.90;;;;;;5057997;28;20417;-45
2022/01/25 11:11:47;;;;;;;5.40;3.10;;;5.50;99.90;;;;;;5057813;28;20429;-50
2022/01/25 11:16:58;;;;;;;15.87;5.70;;;5.50;99.90;;;;;;5054228;28;20429;-45
2022/01/25 11:19:27;;;;;;;11.30;4.07;;;5.50;99.90;;;;;;5057830;28;20426;-47
2022/01/25 11:21:55;;;;;;;13.87;5.73;;;5.50;99.90;;;;;;5057819;28;20426;-46
2022/01/25 11:24:24;;;;;;;10.77;4.97;;;5.50;99.90;;;;;;5057830;28;20507;-45
2022/01/25 11:27:01;;;;;;;12.67;5.30;;;5.50;99.90;;;;;;5058031;28;20471;-49
2022/01/25 11:29:29;;;;;;;10.53;4.30;;;5.50;99.90;;;;;;5076355;28;20448;-51
2022/01/25 11:32:01;;;;;;;10.17;4.30;;;5.50;99.90;;;;;;5078762;28;20404;-47
2022/01/25 11:34:37;;;;;;;10.77;4.87;;;5.50;99.90;;;;;;5081280;28;20458;-49
2022/01/25 11:37:07;;;;;;;9.03;4.77;;;5.60;99.90;;;;;;5081535;28;20419;-47
2022/01/25 11:39:39;;;;;;;6.33;3.47;;;5.50;99.90;;;;;;5081424;28;20428;-46
2022/01/25 11:42:08;;;;;;;5.87;4.30;;;5.50;99.90;;;;;;5081323;28;20499;-48
2022/01/25 11:44:36;;;;;;;10.73;4.93;;;5.50;99.90;;;;;;5081305;28;20416;-43
2022/01/25 11:47:10;;;;;;;10.37;4.00;;;5.60;99.90;;;;;;5081571;28;20447;-46
2022/01/25 11:49:51;;;;;;;12.03;3.60;;;5.60;99.90;;;;;;5081280;28;21395;-50
2022/01/25 11:52:18;;;;;;;14.33;3.87;;;5.70;99.90;;;;;;5081062;28;20408;-46
2022/01/25 11:54:46;;;;;;;8.47;5.10;;;5.80;99.90;;;;;;5081135;28;20430;-47
2022/01/25 11:57:19;;;;;;;6.80;3.47;;;5.70;99.90;;;;;;5081138;28;20455;-47
2022/01/25 11:59:52;;;;;;;9.50;4.20;;;5.70;99.90;;;;;;5080926;28;20442;-46
2022/01/25 12:02:39;;;;;;;11.80;5.70;;;5.60;99.90;;;;;;5080890;28;20417;-46
2022/01/25 12:05:11;;;;;;;9.37;4.50;;;5.70;99.90;;;;;;5080658;28;20534;-49
2022/01/25 12:07:41;;;;;;;11.03;4.67;;;5.70;99.90;;;;;;5080922;28;20421;-44
2022/01/25 12:10:31;;;;;;;8.73;3.60;;;5.80;99.90;;;;;;5080752;28;20419;-48
2022/01/25 12:13:16;;;;;;;10.63;3.27;;;5.80;99.90;;;;;;5080630;28;20443;-46
2022/01/25 12:15:44;;;;;;;13.07;5.13;;;5.70;99.90;;;;;;5080551;28;20440;-49
2022/01/25 12:18:32;;;;;;;18.00;5.00;;;5.60;99.90;;;;;;5080487;28;20459;-45
2022/01/25 12:21:00;;;;;;;9.83;4.37;;;5.60;99.90;;;;;;5080390;28;20451;-47
2022/01/25 12:23:44;;;;;;;12.90;4.80;;;5.70;99.90;;;;;;5080480;28;20710;-49
2022/01/25 12:26:16;;;;;;;9.70;4.57;;;5.70;99.90;;;;;;5080496;28;20450;-48
2022/01/25 12:28:46;;;;;;;7.43;3.73;;;5.70;99.90;;;;;;5080402;28;20416;-47
2022/01/25 12:31:17;;;;;;;8.40;3.50;;;5.70;99.90;;;;;;5080410;28;20495;-53
2022/01/25 12:33:46;;;;;;;9.57;4.20;;;5.70;99.90;;;;;;5080371;28;20444;-42
2022/01/25 12:36:16;;;;;;;7.53;3.40;;;5.70;99.90;;;;;;5080324;28;20445;-46
2022/01/25 12:38:47;;;;;;;9.50;4.20;;;5.70;99.90;;;;;;5080267;28;20429;-47
2022/01/25 12:41:16;;;;;;;7.43;3.20;;;5.80;99.90;;;;;;5080295;28;20446;-47
2022/01/25 12:43:50;;;;;;;7.03;2.83;;;5.80;99.90;;;;;;5079591;28;20416;-51
2022/01/25 12:46:24;;;;;;;13.00;4.87;;;5.80;99.90;;;;;;5080223;28;20457;-49
2022/01/25 12:48:53;;;;;;;5.37;4.00;;;5.80;99.90;;;;;;5079994;28;20436;-47
2022/01/25 12:51:26;;;;;;;11.77;4.67;;;5.80;99.90;;;;;;5080284;28;20432;-44
2022/01/25 12:53:55;;;;;;;5.93;3.70;;;5.80;99.90;;;;;;5079876;28;20447;-49
2022/01/25 12:56:27;;;;;;;12.37;4.60;;;5.80;99.90;;;;;;5079955;28;20484;-48
2022/01/25 12:58:57;;;;;;;14.10;6.33;;;5.90;99.90;;;;;;5079844;28;20408;-47
2022/01/25 13:01:29;;;;;;;7.90;3.50;;;6.00;99.90;;;;;;5079785;28;20482;-45
2022/01/25 13:04:00;;;;;;;14.37;5.60;;;6.00;99.90;;;;;;5079842;28;20411;-47
2022/01/25 13:06:33;;;;;;;10.90;4.00;;;6.00;99.90;;;;;;5079659;28;20423;-49
2022/01/25 13:09:08;;;;;;;11.50;5.87;;;6.00;99.90;;;;;;5079790;28;20419;-47
2022/01/25 13:11:47;;;;;;;15.50;5.03;;;6.00;99.90;;;;;;5079754;28;20420;-43
2022/01/25 13:14:31;;;;;;;7.30;4.63;;;6.00;99.90;;;;;;5079543;28;20471;-50
2022/01/25 13:17:00;;;;;;;11.67;5.73;;;6.00;99.90;;;;;;5079507;28;20416;-50
2022/01/25 13:19:31;;;;;;;12.33;4.17;;;6.00;99.90;;;;;;5079489;28;20447;-50
2022/01/25 13:22:05;;;;;;;7.67;4.03;;;5.90;99.90;;;;;;5079547;28;20433;-50
2022/01/25 13:24:36;;;;;;;7.93;5.00;;;5.90;99.90;;;;;;5079351;28;20464;-47
2022/01/25 13:27:05;;;;;;;10.83;6.13;;;5.90;99.90;;;;;;5079369;28;20455;-45
2022/01/25 13:32:24;;;;;;;12.13;5.00;;;5.90;99.90;;;;;;5079388;28;20459;-44
2022/01/25 13:35:20;;;;;;;14.27;4.50;;;5.90;99.90;;;;;;5079302;28;20447;-46
2022/01/25 13:38:04;;;;;;;14.63;6.43;;;5.90;99.90;;;;;;5079180;28;20443;-49
2022/01/25 13:40:37;;;;;;;10.13;5.13;;;5.80;99.90;;;;;;5079226;28;20423;-45
2022/01/25 13:43:31;;;;;;;12.83;4.00;;;5.80;99.90;;;;;;5079040;28;20420;-50
2022/01/25 13:45:59;;;;;;;8.03;3.77;;;5.70;99.90;;;;;;5078995;28;20427;-49
2022/01/25 14:22:47;;;;;;;14.60;6.27;;;5.80;99.90;;;;;;5058649;28;20480;-47
2022/01/25 14:25:14;;;;;;;11.50;4.77;;;5.80;99.90;;;;;;5058472;28;20445;-49
2022/01/25 14:27:51;;;;;;;16.73;6.10;;;5.80;99.90;;;;;;5058421;28;20445;-48
2022/01/25 14:30:18;;;;;;;15.97;4.73;;;5.80;99.90;;;;;;5064449;28;20432;-47
2022/01/25 14:32:56;;;;;;;22.67;6.57;;;5.90;99.90;;;;;;5078068;28;20466;-49
2022/01/25 14:35:24;;;;;;;16.03;3.50;;;5.80;99.90;;;;;;5078373;28;20437;-46
2022/01/25 14:37:51;;;;;;;23.27;7.27;;;5.80;99.90;;;;;;5078387;28;20493;-51
2022/01/25 14:40:19;;;;;;;9.30;5.27;;;5.80;99.90;;;;;;5078176;28;20420;-50
2022/01/25 14:42:47;;;;;;;14.53;4.60;;;5.80;99.90;;;;;;5078289;28;20438;-45
2022/01/25 14:45:20;;;;;;;15.80;5.37;;;5.80;99.90;;;;;;5078122;28;20527;-48
2022/01/25 14:47:50;;;;;;;14.80;5.97;;;5.80;99.90;;;;;;5078185;28;20488;-44